createdAt,value
2022-09-28T00:01:48.790Z,11.50
2022-09-28T00:04:19.533Z,11.80
2022-09-28T00:06:51.270Z,12.60
2022-09-28T00:09:20.247Z,11.50
2022-09-28T00:11:47.515Z,11.90
2022-09-28T00:14:21.935Z,11.60
2022-09-28T00:16:51.312Z,12.10
2022-09-28T00:19:25.063Z,11.60
2022-09-28T00:21:54.288Z,11.60
2022-09-28T00:24:25.211Z,11.90
2022-09-28T00:27:00.113Z,12.20
2022-09-28T00:29:32.389Z,11.70
2022-09-28T00:32:20.408Z,12.10
2022-09-28T00:34:51.156Z,11.70
2022-09-28T00:37:25.228Z,12.00
2022-09-28T00:39:54.276Z,11.80
2022-09-28T00:42:28.755Z,11.70
2022-09-28T00:44:59.782Z,11.60
2022-09-28T00:47:43.907Z,12.40
2022-09-28T00:50:19.408Z,11.70
2022-09-28T00:52:55.272Z,11.70
2022-09-28T00:56:03.612Z,11.60
2022-09-28T00:58:34.457Z,11.60
2022-09-28T01:01:01.299Z,11.70
2022-09-28T01:03:29.153Z,11.60
2022-09-28T01:05:59.507Z,11.60
2022-09-28T01:08:30.083Z,11.60
2022-09-28T01:10:57.684Z,11.70
2022-09-28T01:13:25.233Z,11.60
2022-09-28T01:16:30.623Z,11.60
2022-09-28T01:19:04.519Z,11.60
2022-09-28T01:21:48.055Z,11.60
2022-09-28T01:24:41.052Z,11.60
2022-09-28T01:27:28.311Z,11.60
2022-09-28T01:30:08.511Z,11.50
2022-09-28T01:32:58.936Z,11.50
2022-09-28T01:35:31.864Z,11.50
2022-09-28T01:38:25.351Z,11.50
2022-09-28T01:40:52.537Z,11.50
2022-09-28T01:43:27.916Z,11.50
2022-09-28T01:46:07.131Z,11.50
2022-09-28T01:48:41.228Z,11.50
2022-09-28T01:51:16.589Z,11.50
2022-09-28T01:53:53.072Z,11.50
2022-09-28T01:56:28.399Z,11.50
2022-09-28T01:59:03.223Z,11.50
2022-09-28T02:01:38.935Z,11.50
2022-09-28T02:04:16.181Z,11.50
2022-09-28T02:06:57.714Z,11.40
2022-09-28T02:09:33.886Z,11.50
2022-09-28T02:12:06.063Z,11.50
2022-09-28T02:14:38.729Z,11.40
2022-09-28T02:17:05.839Z,11.40
2022-09-28T02:19:33.600Z,11.40
2022-09-28T02:22:28.611Z,11.40
2022-09-28T02:25:20.905Z,11.40
2022-09-28T02:28:01.118Z,11.40
2022-09-28T02:30:30.352Z,11.40
2022-09-28T02:33:03.315Z,11.40
2022-09-28T02:35:30.006Z,11.40
2022-09-28T02:37:56.653Z,11.50
2022-09-28T02:40:31.646Z,11.50
2022-09-28T02:43:14.464Z,11.50
2022-09-28T02:46:05.253Z,11.50
2022-09-28T02:49:05.024Z,11.50
2022-09-28T02:51:49.477Z,11.50
2022-09-28T02:54:37.182Z,11.50
2022-09-28T02:57:21.609Z,11.50
2022-09-28T03:00:13.147Z,11.60
2022-09-28T03:03:01.347Z,11.60
2022-09-28T03:05:52.715Z,11.50
2022-09-28T03:08:35.726Z,11.60
2022-09-28T03:11:16.642Z,11.60
2022-09-28T03:13:43.836Z,11.60
2022-09-28T03:16:17.177Z,11.50
2022-09-28T03:18:59.142Z,11.60
2022-09-28T03:21:34.551Z,11.70
2022-09-28T03:24:03.473Z,11.50
2022-09-28T03:26:35.546Z,11.60
2022-09-28T03:29:04.988Z,11.60
2022-09-28T03:31:33.263Z,11.60
2022-09-28T03:34:00.040Z,11.70
2022-09-28T03:36:29.091Z,11.70
2022-09-28T03:39:03.971Z,11.80
2022-09-28T03:41:33.329Z,11.70
2022-09-28T03:44:07.810Z,11.90
2022-09-28T03:46:49.511Z,11.70
2022-09-28T03:49:22.575Z,11.70
2022-09-28T03:52:02.191Z,11.70
2022-09-28T03:54:30.482Z,11.70
2022-09-28T03:57:06.168Z,11.70
2022-09-28T03:59:35.048Z,12.10
2022-09-28T04:02:14.993Z,12.20
2022-09-28T04:04:47.741Z,11.80
2022-09-28T04:07:17.724Z,11.80
2022-09-28T04:09:56.097Z,12.00
2022-09-28T04:12:25.866Z,12.10
2022-09-28T04:14:55.303Z,11.70
2022-09-28T04:17:22.336Z,12.00
2022-09-28T04:19:49.267Z,11.80
2022-09-28T04:22:23.745Z,11.70
2022-09-28T04:24:54.509Z,11.80
2022-09-28T04:27:47.676Z,11.70
2022-09-28T04:30:20.148Z,11.80
2022-09-28T04:32:56.239Z,11.70
2022-09-28T04:38:35.898Z,11.80
2022-09-28T04:41:16.861Z,11.70
2022-09-28T04:43:46.858Z,11.70
2022-09-28T04:46:17.861Z,11.60
2022-09-28T04:48:49.914Z,11.90
2022-09-28T04:51:19.312Z,11.70
2022-09-28T04:53:48.619Z,11.70
2022-09-28T04:56:26.055Z,11.70
2022-09-28T04:58:56.019Z,11.70
2022-09-28T05:01:29.187Z,11.80
2022-09-28T05:03:58.872Z,11.60
2022-09-28T05:06:30.913Z,11.60
2022-09-28T05:09:05.594Z,11.70
2022-09-28T05:11:37.488Z,11.70
2022-09-28T05:14:06.869Z,11.50
2022-09-28T05:16:41.557Z,11.70
2022-09-28T05:19:38.263Z,11.60
2022-09-28T05:22:11.620Z,11.70
2022-09-28T05:24:41.367Z,11.80
2022-09-28T05:27:09.309Z,12.00
2022-09-28T05:29:46.679Z,12.10
2022-09-28T05:32:43.959Z,11.70
2022-09-28T05:35:25.002Z,11.60
2022-09-28T05:37:59.955Z,11.70
2022-09-28T05:40:32.773Z,11.70
2022-09-28T05:43:18.539Z,11.60
2022-09-28T05:45:55.081Z,11.70
2022-09-28T05:48:28.508Z,11.70
2022-09-28T05:51:26.777Z,11.70
2022-09-28T05:54:04.618Z,11.70
2022-09-28T05:56:32.902Z,11.70
2022-09-28T05:59:19.691Z,11.70
2022-09-28T06:01:46.504Z,11.70
2022-09-28T06:04:14.840Z,11.70
2022-09-28T06:06:42.460Z,11.70
2022-09-28T06:09:09.346Z,11.70
2022-09-28T06:11:36.145Z,11.70
2022-09-28T06:14:02.871Z,11.70
2022-09-28T06:16:29.585Z,11.70
2022-09-28T06:18:56.470Z,11.70
2022-09-28T06:21:23.236Z,11.80
2022-09-28T06:23:49.875Z,11.80
2022-09-28T06:26:19.355Z,11.80
2022-09-28T06:28:58.726Z,11.80
2022-09-28T06:31:25.796Z,11.90
2022-09-28T06:33:52.689Z,11.90
2022-09-28T06:36:20.784Z,11.90
2022-09-28T06:38:47.596Z,11.90
2022-09-28T06:41:14.562Z,11.90
2022-09-28T06:43:41.452Z,11.90
2022-09-28T06:46:09.986Z,11.90
2022-09-28T06:48:37.718Z,11.90
2022-09-28T06:51:04.657Z,11.90
2022-09-28T06:53:32.544Z,12.00
2022-09-28T06:56:00.498Z,12.00
2022-09-28T06:58:28.221Z,12.00
2022-09-28T07:01:00.384Z,12.00
2022-09-28T07:03:27.681Z,12.00
2022-09-28T07:05:56.250Z,12.00
2022-09-28T07:08:26.107Z,12.10
2022-09-28T07:10:57.298Z,12.10
2022-09-28T07:16:15.233Z,12.20
2022-09-28T07:18:42.336Z,12.10
2022-09-28T07:21:13.628Z,12.20
2022-09-28T07:23:52.721Z,12.20
2022-09-28T07:26:23.994Z,12.20
2022-09-28T07:28:51.395Z,12.20
2022-09-28T07:31:18.114Z,12.20
2022-09-28T07:33:45.801Z,12.30
2022-09-28T07:36:12.686Z,12.30
2022-09-28T07:38:39.342Z,12.30
2022-09-28T07:41:11.925Z,12.40
2022-09-28T07:43:40.029Z,12.40
2022-09-28T07:46:11.946Z,12.30
2022-09-28T07:48:41.020Z,12.30
2022-09-28T07:51:08.120Z,12.40
2022-09-28T07:53:35.422Z,12.30
2022-09-28T07:56:06.213Z,12.40
2022-09-28T07:58:34.357Z,12.40
2022-09-28T08:01:05.861Z,12.40
2022-09-28T08:03:32.728Z,12.40
2022-09-28T08:06:05.174Z,12.40
2022-09-28T08:08:34.179Z,12.40
2022-09-28T08:11:01.054Z,12.30
2022-09-28T08:13:27.835Z,12.40
2022-09-28T08:15:55.405Z,12.40
2022-09-28T08:18:23.544Z,12.40
2022-09-28T08:21:11.780Z,12.50
2022-09-28T08:23:38.682Z,12.40
2022-09-28T08:26:06.095Z,12.40
2022-09-28T08:28:33.270Z,12.40
2022-09-28T08:31:03.706Z,12.40
2022-09-28T08:33:30.856Z,12.40
2022-09-28T08:35:59.224Z,12.50
2022-09-28T08:38:27.574Z,12.50
2022-09-28T08:41:07.494Z,12.50
2022-09-28T08:43:53.315Z,12.50
2022-09-28T08:46:27.022Z,12.50
2022-09-28T08:52:05.109Z,12.60
2022-09-28T08:54:44.475Z,12.60
2022-09-28T08:57:23.607Z,12.70
2022-09-28T08:59:53.920Z,12.70
2022-09-28T09:02:26.176Z,12.80
2022-09-28T09:04:53.575Z,12.70
2022-09-28T09:07:51.163Z,12.70
2022-09-28T09:10:47.314Z,12.80
2022-09-28T09:13:45.808Z,12.80
2022-09-28T09:16:51.221Z,12.80
2022-09-28T09:19:35.605Z,12.80
2022-09-28T09:22:18.040Z,12.80
2022-09-28T09:25:08.111Z,12.80
2022-09-28T09:28:12.556Z,12.80
2022-09-28T09:31:05.196Z,12.90
2022-09-28T09:33:53.828Z,12.90
2022-09-28T09:36:28.080Z,12.90
2022-09-28T09:39:27.125Z,13.00
2022-09-28T09:42:08.292Z,13.00
2022-09-28T09:45:04.762Z,13.00
2022-09-28T09:47:45.394Z,13.10
2022-09-28T09:50:29.760Z,13.10
2022-09-28T09:53:24.475Z,13.10
2022-09-28T09:55:57.353Z,13.10
2022-09-28T09:58:34.188Z,13.10
2022-09-28T10:01:09.254Z,13.10
2022-09-28T10:03:41.135Z,13.20
2022-09-28T10:06:27.546Z,13.20
2022-09-28T10:09:06.582Z,13.20
2022-09-28T10:11:39.798Z,13.30
2022-09-28T10:14:08.215Z,13.40
2022-09-28T10:16:36.207Z,13.50
2022-09-28T10:19:03.063Z,13.50
2022-09-28T10:21:30.406Z,13.50
2022-09-28T10:23:59.639Z,13.50
2022-09-28T10:26:39.073Z,13.50
2022-09-28T10:29:16.011Z,13.50
2022-09-28T10:31:45.436Z,13.50
2022-09-28T10:34:17.204Z,13.50
2022-09-28T10:36:55.981Z,13.50
2022-09-28T10:39:31.685Z,13.40
2022-09-28T10:42:03.551Z,13.40
2022-09-28T10:44:34.616Z,13.30
2022-09-28T10:47:09.866Z,13.30
2022-09-28T10:49:46.811Z,13.40
2022-09-28T10:52:35.772Z,13.30
2022-09-28T10:55:21.205Z,13.30
2022-09-28T10:57:48.397Z,13.40
2022-09-28T11:00:33.722Z,13.40
2022-09-28T11:03:02.200Z,13.40
2022-09-28T11:05:30.125Z,13.40
2022-09-28T11:08:00.013Z,13.40
2022-09-28T11:10:29.559Z,13.40
2022-09-28T11:12:57.285Z,13.40
2022-09-28T11:15:33.159Z,13.40
2022-09-28T11:18:18.753Z,13.40
2022-09-28T11:20:45.856Z,13.40
2022-09-28T11:23:32.787Z,13.50
2022-09-28T11:26:11.910Z,13.40
2022-09-28T11:28:43.285Z,13.50
2022-09-28T11:31:11.414Z,13.50
2022-09-28T11:33:39.836Z,13.50
2022-09-28T11:36:18.764Z,13.50
2022-09-28T11:39:09.211Z,13.50
2022-09-28T11:41:39.059Z,13.50
2022-09-28T11:44:36.446Z,13.50
2022-09-28T11:47:25.191Z,13.50
2022-09-28T11:50:02.381Z,13.50
2022-09-28T11:52:50.832Z,13.50
2022-09-28T11:55:45.461Z,13.30
2022-09-28T11:58:24.545Z,13.30
2022-09-28T12:00:58.111Z,13.30
2022-09-28T12:03:42.322Z,13.30
2022-09-28T12:06:18.709Z,13.20
2022-09-28T12:09:03.208Z,13.30
2022-09-28T12:11:42.278Z,13.30
2022-09-28T12:14:21.825Z,13.30
2022-09-28T12:17:06.959Z,13.30
2022-09-28T12:19:41.195Z,13.40
2022-09-28T12:22:34.923Z,13.40
2022-09-28T12:25:03.871Z,13.40
2022-09-28T12:27:40.080Z,13.40
2022-09-28T12:30:22.475Z,13.40
2022-09-28T12:33:03.949Z,13.40
2022-09-28T12:35:36.282Z,13.40
2022-09-28T12:38:24.946Z,13.40
2022-09-28T12:41:19.842Z,13.40
2022-09-28T12:44:17.195Z,13.40
2022-09-28T12:47:21.862Z,13.40
2022-09-28T12:53:15.345Z,13.20
2022-09-28T12:55:42.028Z,13.30
2022-09-28T12:58:43.413Z,13.20
2022-09-28T13:01:39.994Z,13.30
2022-09-28T13:04:22.540Z,13.20
2022-09-28T13:07:07.461Z,13.20
2022-09-28T13:10:17.295Z,13.20
2022-09-28T13:12:46.940Z,13.30
2022-09-28T13:15:38.711Z,13.30
2022-09-28T13:18:09.743Z,13.40
2022-09-28T13:20:42.553Z,13.30
2022-09-28T13:23:27.592Z,13.40
2022-09-28T13:26:01.378Z,13.50
2022-09-28T13:28:30.135Z,13.50
2022-09-28T13:33:31.316Z,13.60
2022-09-28T13:35:57.986Z,13.70
2022-09-28T13:38:25.405Z,13.70
2022-09-28T13:41:04.385Z,13.80
2022-09-28T13:43:53.698Z,13.90
2022-09-28T13:46:42.451Z,13.90
2022-09-28T13:49:41.510Z,13.90
2022-09-28T13:52:40.417Z,13.80
2022-09-28T13:55:20.717Z,13.80
2022-09-28T13:58:20.608Z,13.70
2022-09-28T14:01:13.133Z,13.60
2022-09-28T14:03:54.039Z,13.60
2022-09-28T14:06:23.655Z,13.60
2022-09-28T14:09:15.775Z,13.60
2022-09-28T14:12:00.580Z,13.60
2022-09-28T14:14:50.498Z,13.60
2022-09-28T14:17:27.179Z,13.60
2022-09-28T14:20:00.641Z,13.60
2022-09-28T14:23:00.957Z,13.60
2022-09-28T14:25:31.903Z,13.50
2022-09-28T14:28:18.100Z,13.50
2022-09-28T14:30:51.387Z,13.50
2022-09-28T14:33:21.353Z,13.50
2022-09-28T14:36:02.041Z,13.40
2022-09-28T14:38:55.875Z,13.40
2022-09-28T14:41:35.007Z,13.40
2022-09-28T14:44:12.683Z,13.40
2022-09-28T14:46:45.562Z,13.40
2022-09-28T14:49:19.415Z,13.40
2022-09-28T14:51:55.830Z,13.40
2022-09-28T14:54:27.244Z,13.40
2022-09-28T14:56:57.071Z,13.40
2022-09-28T14:59:30.309Z,13.40
2022-09-28T15:02:04.158Z,13.50
2022-09-28T15:04:31.700Z,13.50
2022-09-28T15:06:58.410Z,13.40
2022-09-28T15:09:37.263Z,13.40
2022-09-28T15:12:16.121Z,13.40
2022-09-28T15:14:51.473Z,13.40
2022-09-28T15:17:22.351Z,13.40
2022-09-28T15:20:21.097Z,13.40
2022-09-28T15:22:49.755Z,13.30
2022-09-28T15:25:20.080Z,13.30
2022-09-28T15:27:50.936Z,13.30
2022-09-28T15:30:29.768Z,13.20
2022-09-28T15:33:18.196Z,13.30
2022-09-28T15:36:05.850Z,13.20
2022-09-28T15:38:34.044Z,13.20
2022-09-28T15:41:06.595Z,13.10
2022-09-28T15:43:34.628Z,13.10
2022-09-28T15:46:19.264Z,13.00
2022-09-28T15:48:55.277Z,13.00
2022-09-28T15:51:23.613Z,13.00
2022-09-28T15:54:19.419Z,13.00
2022-09-28T15:56:59.512Z,13.00
2022-09-28T15:59:41.047Z,13.00
2022-09-28T16:02:17.580Z,13.00
2022-09-28T16:04:53.026Z,13.00
2022-09-28T16:07:38.484Z,13.00
2022-09-28T16:10:14.258Z,13.00
2022-09-28T16:12:43.661Z,13.00
2022-09-28T16:15:32.716Z,12.90
2022-09-28T16:18:06.829Z,12.90
2022-09-28T16:20:46.164Z,12.90
2022-09-28T16:23:25.811Z,12.90
2022-09-28T16:26:00.450Z,12.80
2022-09-28T16:28:29.541Z,12.80
2022-09-28T16:31:05.587Z,12.70
2022-09-28T16:33:43.838Z,12.70
2022-09-28T16:36:16.437Z,12.70
2022-09-28T16:38:47.491Z,12.60
2022-09-28T16:41:19.009Z,12.60
2022-09-28T16:43:46.579Z,12.60
2022-09-28T16:46:17.442Z,12.60
2022-09-28T16:48:50.092Z,12.50
2022-09-28T16:51:20.606Z,12.50
2022-09-28T16:54:06.137Z,12.50
2022-09-28T16:56:36.509Z,12.50
2022-09-28T16:59:03.363Z,12.40
2022-09-28T17:01:31.196Z,12.40
2022-09-28T17:03:58.035Z,12.30
2022-09-28T17:06:25.392Z,12.30
2022-09-28T17:08:52.882Z,12.20
2022-09-28T17:11:24.598Z,12.20
2022-09-28T17:13:52.369Z,12.00
2022-09-28T17:16:32.584Z,12.00
2022-09-28T17:19:21.160Z,11.90
2022-09-28T17:21:48.859Z,11.90
2022-09-28T17:24:15.624Z,11.90
2022-09-28T17:26:44.410Z,11.90
2022-09-28T17:29:14.635Z,11.90
2022-09-28T17:31:46.494Z,11.90
2022-09-28T17:34:16.183Z,11.90
2022-09-28T17:36:44.075Z,11.80
2022-09-28T17:39:13.434Z,11.70
2022-09-28T17:41:40.967Z,11.70
2022-09-28T17:44:08.080Z,11.60
2022-09-28T17:46:39.457Z,11.60
2022-09-28T17:49:10.382Z,11.70
2022-09-28T17:51:37.851Z,11.70
2022-09-28T17:54:06.818Z,11.70
2022-09-28T17:56:35.282Z,11.70
2022-09-28T17:59:10.609Z,11.60
2022-09-28T18:01:39.329Z,11.70
2022-09-28T18:04:08.748Z,11.60
2022-09-28T18:06:37.133Z,11.70
2022-09-28T18:09:04.750Z,11.70
2022-09-28T18:11:32.891Z,11.70
2022-09-28T18:14:00.024Z,11.70
2022-09-28T18:16:28.688Z,11.70
2022-09-28T18:18:55.573Z,11.70
2022-09-28T18:21:22.224Z,11.60
2022-09-28T18:23:48.998Z,11.60
2022-09-28T18:26:16.766Z,11.60
2022-09-28T18:28:43.481Z,11.60
2022-09-28T18:31:11.961Z,11.60
2022-09-28T18:33:39.091Z,11.60
2022-09-28T18:36:06.809Z,11.60
2022-09-28T18:38:36.988Z,11.60
2022-09-28T18:41:14.372Z,11.60
2022-09-28T18:43:41.437Z,11.60
2022-09-28T18:46:10.963Z,11.60
2022-09-28T18:48:40.560Z,11.60
2022-09-28T18:51:12.106Z,11.60
2022-09-28T18:53:40.343Z,11.80
2022-09-28T18:56:12.479Z,11.70
2022-09-28T18:58:40.794Z,11.70
2022-09-28T19:01:32.631Z,11.70
2022-09-28T19:04:01.061Z,11.80
2022-09-28T19:06:28.720Z,11.80
2022-09-28T19:08:56.376Z,11.80
2022-09-28T19:11:23.569Z,11.80
2022-09-28T19:13:50.686Z,11.80
2022-09-28T19:16:20.767Z,11.80
2022-09-28T19:18:48.426Z,11.80
2022-09-28T19:21:15.701Z,11.80
2022-09-28T19:23:49.081Z,11.80
2022-09-28T19:26:22.027Z,11.80
2022-09-28T19:28:48.891Z,11.80
2022-09-28T19:31:16.109Z,11.90
2022-09-28T19:33:46.133Z,11.90
2022-09-28T19:36:15.791Z,11.90
2022-09-28T19:38:42.621Z,11.90
2022-09-28T19:41:40.762Z,12.00
2022-09-28T19:44:15.597Z,11.90
2022-09-28T19:46:42.556Z,12.00
2022-09-28T19:49:12.649Z,12.00
2022-09-28T19:51:51.502Z,12.00
2022-09-28T19:54:33.138Z,12.00
2022-09-28T19:57:07.436Z,12.00
2022-09-28T19:59:35.605Z,12.00
2022-09-28T20:02:03.139Z,12.00
2022-09-28T20:04:30.030Z,12.10
2022-09-28T20:06:56.812Z,12.00
2022-09-28T20:09:23.465Z,12.00
2022-09-28T20:11:51.758Z,12.00
2022-09-28T20:14:18.724Z,12.00
2022-09-28T20:16:48.604Z,12.00
2022-09-28T20:19:15.447Z,12.00
2022-09-28T20:21:42.116Z,11.90
2022-09-28T20:24:11.460Z,11.90
2022-09-28T20:26:38.096Z,11.90
2022-09-28T20:29:06.632Z,11.90
2022-09-28T20:31:37.906Z,11.90
2022-09-28T20:34:05.924Z,11.80
2022-09-28T20:36:33.014Z,11.80
2022-09-28T20:39:04.279Z,11.80
2022-09-28T20:41:36.850Z,11.80
2022-09-28T20:44:06.157Z,11.80
2022-09-28T20:46:34.666Z,11.80
2022-09-28T20:49:01.720Z,11.80
2022-09-28T20:51:28.612Z,11.80
2022-09-28T20:53:57.277Z,11.80
2022-09-28T20:56:31.533Z,11.70
2022-09-28T20:58:58.261Z,11.80
2022-09-28T21:01:27.033Z,11.70
2022-09-28T21:03:55.951Z,11.70
2022-09-28T21:06:25.754Z,11.70
2022-09-28T21:08:52.799Z,11.70
2022-09-28T21:11:22.209Z,11.70
2022-09-28T21:13:53.153Z,11.70
2022-09-28T21:16:19.835Z,11.70
2022-09-28T21:18:47.547Z,11.70
2022-09-28T21:21:16.765Z,11.70
2022-09-28T21:23:46.696Z,11.70
2022-09-28T21:26:25.052Z,11.70
2022-09-28T21:28:59.934Z,11.70
2022-09-28T21:31:29.783Z,11.70
2022-09-28T21:33:57.505Z,11.70
2022-09-28T21:36:25.161Z,11.70
2022-09-28T21:38:51.959Z,11.70
2022-09-28T21:41:18.598Z,11.70
2022-09-28T21:43:45.947Z,11.70
2022-09-28T21:46:12.858Z,11.70
2022-09-28T21:48:39.620Z,11.70
2022-09-28T21:51:08.570Z,11.80
2022-09-28T21:53:37.466Z,11.80
2022-09-28T21:56:09.360Z,11.80
2022-09-28T21:58:36.796Z,11.80
2022-09-28T22:01:08.887Z,11.70
2022-09-28T22:03:36.678Z,11.70
2022-09-28T22:06:04.650Z,11.70
2022-09-28T22:08:31.706Z,11.70
2022-09-28T22:11:19.102Z,11.70
2022-09-28T22:13:51.273Z,11.80
2022-09-28T22:16:20.622Z,11.80
2022-09-28T22:18:47.510Z,11.80
2022-09-28T22:21:20.419Z,11.70
2022-09-28T22:23:47.809Z,11.80
2022-09-28T22:26:19.012Z,11.80
2022-09-28T22:29:00.628Z,11.70
2022-09-28T22:31:38.484Z,11.70
2022-09-28T22:34:05.825Z,11.70
2022-09-28T22:36:33.129Z,11.70
2022-09-28T22:39:00.960Z,11.70
2022-09-28T22:41:27.583Z,11.70
2022-09-28T22:43:54.838Z,11.70
2022-09-28T22:46:23.928Z,11.70
2022-09-28T22:48:58.344Z,11.70
2022-09-28T22:51:27.679Z,11.70
2022-09-28T22:53:54.413Z,11.70
2022-09-28T22:56:21.120Z,11.80
2022-09-28T22:58:48.210Z,11.70
2022-09-28T23:01:17.770Z,11.70
2022-09-28T23:03:45.196Z,11.70
2022-09-28T23:06:14.936Z,11.70
2022-09-28T23:08:41.836Z,11.70
2022-09-28T23:11:08.925Z,11.70
2022-09-28T23:13:35.599Z,11.70
2022-09-28T23:16:04.814Z,11.70
2022-09-28T23:18:33.663Z,11.70
2022-09-28T23:21:03.011Z,11.60
2022-09-28T23:23:29.813Z,11.60
2022-09-28T23:25:56.847Z,11.60
2022-09-28T23:28:25.199Z,11.50
2022-09-28T23:30:52.378Z,11.50
2022-09-28T23:33:20.566Z,11.50
2022-09-28T23:35:47.244Z,11.40
2022-09-28T23:38:15.415Z,11.40
2022-09-28T23:40:42.190Z,11.30
2022-09-28T23:43:08.953Z,11.30
2022-09-28T23:45:36.083Z,11.30
2022-09-28T23:48:03.088Z,11.20
2022-09-28T23:50:29.792Z,11.20
2022-09-28T23:52:56.466Z,11.20
2022-09-28T23:55:23.272Z,11.20
2022-09-28T23:57:50.136Z,11.30
